sensor_id;sensor_type;location;lat;lon;timestamp;P1;durP1;ratioP1;P2;durP2;ratioP2
45136;SDS011;30894;51.740;19.498;2023-08-06T00:01:15;5.03;;;2.25;;
45136;SDS011;30894;51.740;19.498;2023-08-06T00:03:49;3.53;;;2.33;;
45136;SDS011;30894;51.740;19.498;2023-08-06T00:06:15;4.55;;;2.25;;
45136;SDS011;30894;51.740;19.498;2023-08-06T00:08:41;2.88;;;1.88;;
45136;SDS011;30894;51.740;19.498;2023-08-06T00:11:07;9.40;;;2.10;;
45136;SDS011;30894;51.740;19.498;2023-08-06T00:13:34;3.22;;;2.03;;
45136;SDS011;30894;51.740;19.498;2023-08-06T00:16:10;6.53;;;2.60;;
45136;SDS011;30894;51.740;19.498;2023-08-06T00:18:38;2.83;;;2.10;;
45136;SDS011;30894;51.740;19.498;2023-08-06T00:21:05;4.38;;;2.22;;
45136;SDS011;30894;51.740;19.498;2023-08-06T00:23:31;5.70;;;3.60;;
45136;SDS011;30894;51.740;19.498;2023-08-06T00:25:57;6.88;;;3.65;;
45136;SDS011;30894;51.740;19.498;2023-08-06T00:28:23;8.68;;;4.70;;
45136;SDS011;30894;51.740;19.498;2023-08-06T00:30:55;8.00;;;4.72;;
45136;SDS011;30894;51.740;19.498;2023-08-06T00:33:22;10.45;;;4.82;;
45136;SDS011;30894;51.740;19.498;2023-08-06T00:35:49;6.82;;;3.60;;
45136;SDS011;30894;51.740;19.498;2023-08-06T00:38:15;6.60;;;3.83;;
45136;SDS011;30894;51.740;19.498;2023-08-06T00:40:41;5.18;;;3.20;;
45136;SDS011;30894;51.740;19.498;2023-08-06T00:43:07;3.88;;;2.53;;
45136;SDS011;30894;51.740;19.498;2023-08-06T00:45:34;4.47;;;2.53;;
45136;SDS011;30894;51.740;19.498;2023-08-06T00:48:02;3.58;;;2.20;;
45136;SDS011;30894;51.740;19.498;2023-08-06T00:50:31;3.50;;;1.90;;
45136;SDS011;30894;51.740;19.498;2023-08-06T00:52:57;3.30;;;1.67;;
45136;SDS011;30894;51.740;19.498;2023-08-06T00:55:24;2.13;;;1.33;;
45136;SDS011;30894;51.740;19.498;2023-08-06T00:57:51;3.35;;;1.73;;
45136;SDS011;30894;51.740;19.498;2023-08-06T01:00:21;2.45;;;1.70;;
45136;SDS011;30894;51.740;19.498;2023-08-06T01:02:49;3.17;;;1.77;;
45136;SDS011;30894;51.740;19.498;2023-08-06T01:05:19;2.95;;;2.15;;
45136;SDS011;30894;51.740;19.498;2023-08-06T01:08:04;6.38;;;1.90;;
45136;SDS011;30894;51.740;19.498;2023-08-06T01:14:08;4.90;;;1.27;;
45136;SDS011;30894;51.740;19.498;2023-08-06T01:16:44;4.70;;;1.90;;
45136;SDS011;30894;51.740;19.498;2023-08-06T01:19:17;2.85;;;1.60;;
45136;SDS011;30894;51.740;19.498;2023-08-06T01:21:44;2.00;;;1.45;;
45136;SDS011;30894;51.740;19.498;2023-08-06T01:24:10;3.25;;;1.35;;
45136;SDS011;30894;51.740;19.498;2023-08-06T01:26:52;1.90;;;1.33;;
45136;SDS011;30894;51.740;19.498;2023-08-06T01:29:45;1.98;;;1.33;;
45136;SDS011;30894;51.740;19.498;2023-08-06T01:32:23;2.63;;;0.98;;
45136;SDS011;30894;51.740;19.498;2023-08-06T01:34:51;4.43;;;1.67;;
45136;SDS011;30894;51.740;19.498;2023-08-06T01:37:19;3.03;;;1.52;;
45136;SDS011;30894;51.740;19.498;2023-08-06T01:39:46;1.80;;;1.50;;
45136;SDS011;30894;51.740;19.498;2023-08-06T01:42:12;2.17;;;1.13;;
45136;SDS011;30894;51.740;19.498;2023-08-06T01:44:38;2.08;;;1.30;;
45136;SDS011;30894;51.740;19.498;2023-08-06T01:47:04;2.80;;;1.38;;
45136;SDS011;30894;51.740;19.498;2023-08-06T01:49:30;2.75;;;1.38;;
45136;SDS011;30894;51.740;19.498;2023-08-06T01:51:57;3.80;;;1.23;;
45136;SDS011;30894;51.740;19.498;2023-08-06T01:54:23;2.58;;;1.48;;
45136;SDS011;30894;51.740;19.498;2023-08-06T01:56:49;1.85;;;1.35;;
45136;SDS011;30894;51.740;19.498;2023-08-06T01:59:15;1.83;;;1.58;;
45136;SDS011;30894;51.740;19.498;2023-08-06T02:01:41;2.47;;;1.30;;
45136;SDS011;30894;51.740;19.498;2023-08-06T02:04:09;1.75;;;1.50;;
45136;SDS011;30894;51.740;19.498;2023-08-06T02:06:36;2.85;;;1.60;;
45136;SDS011;30894;51.740;19.498;2023-08-06T02:09:01;5.18;;;1.98;;
45136;SDS011;30894;51.740;19.498;2023-08-06T02:11:31;3.28;;;1.70;;
45136;SDS011;30894;51.740;19.498;2023-08-06T02:13:57;2.03;;;1.42;;
45136;SDS011;30894;51.740;19.498;2023-08-06T02:16:24;2.03;;;1.63;;
45136;SDS011;30894;51.740;19.498;2023-08-06T02:18:50;4.53;;;1.80;;
45136;SDS011;30894;51.740;19.498;2023-08-06T02:21:19;2.83;;;1.80;;
45136;SDS011;30894;51.740;19.498;2023-08-06T02:23:45;4.82;;;1.77;;
45136;SDS011;30894;51.740;19.498;2023-08-06T02:26:11;2.45;;;1.63;;
45136;SDS011;30894;51.740;19.498;2023-08-06T02:28:37;1.92;;;1.48;;
45136;SDS011;30894;51.740;19.498;2023-08-06T02:31:03;3.55;;;2.30;;
45136;SDS011;30894;51.740;19.498;2023-08-06T02:33:31;3.80;;;2.33;;
45136;SDS011;30894;51.740;19.498;2023-08-06T02:35:59;3.20;;;1.65;;
45136;SDS011;30894;51.740;19.498;2023-08-06T02:38:26;3.08;;;1.75;;
45136;SDS011;30894;51.740;19.498;2023-08-06T02:40:53;4.05;;;2.17;;
45136;SDS011;30894;51.740;19.498;2023-08-06T02:43:19;3.17;;;1.92;;
45136;SDS011;30894;51.740;19.498;2023-08-06T02:45:45;2.92;;;2.03;;
45136;SDS011;30894;51.740;19.498;2023-08-06T02:48:11;3.60;;;2.10;;
45136;SDS011;30894;51.740;19.498;2023-08-06T02:50:41;5.35;;;2.20;;
45136;SDS011;30894;51.740;19.498;2023-08-06T02:53:07;4.47;;;2.72;;
45136;SDS011;30894;51.740;19.498;2023-08-06T02:55:34;3.38;;;1.75;;
45136;SDS011;30894;51.740;19.498;2023-08-06T02:58:01;3.42;;;1.70;;
45136;SDS011;30894;51.740;19.498;2023-08-06T03:00:30;8.32;;;1.80;;
45136;SDS011;30894;51.740;19.498;2023-08-06T03:02:56;3.75;;;1.83;;
45136;SDS011;30894;51.740;19.498;2023-08-06T03:05:22;2.50;;;1.85;;
45136;SDS011;30894;51.740;19.498;2023-08-06T03:07:48;2.42;;;1.80;;
45136;SDS011;30894;51.740;19.498;2023-08-06T03:10:14;2.70;;;1.63;;
45136;SDS011;30894;51.740;19.498;2023-08-06T03:12:41;2.95;;;1.88;;
45136;SDS011;30894;51.740;19.498;2023-08-06T03:15:07;3.20;;;1.77;;
45136;SDS011;30894;51.740;19.498;2023-08-06T03:17:34;3.33;;;1.75;;
45136;SDS011;30894;51.740;19.498;2023-08-06T03:20:00;1.67;;;1.30;;
45136;SDS011;30894;51.740;19.498;2023-08-06T03:22:26;4.75;;;1.90;;
45136;SDS011;30894;51.740;19.498;2023-08-06T03:24:52;3.20;;;2.20;;
45136;SDS011;30894;51.740;19.498;2023-08-06T03:27:18;3.35;;;1.58;;
45136;SDS011;30894;51.740;19.498;2023-08-06T03:29:44;1.40;;;1.23;;
45136;SDS011;30894;51.740;19.498;2023-08-06T03:32:10;2.22;;;1.80;;
45136;SDS011;30894;51.740;19.498;2023-08-06T03:34:36;2.15;;;1.60;;
45136;SDS011;30894;51.740;19.498;2023-08-06T03:37:02;2.83;;;1.73;;
45136;SDS011;30894;51.740;19.498;2023-08-06T03:39:29;1.63;;;1.50;;
45136;SDS011;30894;51.740;19.498;2023-08-06T03:41:55;1.80;;;1.15;;
45136;SDS011;30894;51.740;19.498;2023-08-06T03:44:22;1.85;;;1.33;;
45136;SDS011;30894;51.740;19.498;2023-08-06T03:46:47;1.40;;;1.20;;
45136;SDS011;30894;51.740;19.498;2023-08-06T03:49:14;2.22;;;1.30;;
45136;SDS011;30894;51.740;19.498;2023-08-06T03:51:40;4.10;;;1.48;;
45136;SDS011;30894;51.740;19.498;2023-08-06T03:54:06;3.22;;;1.85;;
45136;SDS011;30894;51.740;19.498;2023-08-06T03:56:32;2.58;;;1.40;;
45136;SDS011;30894;51.740;19.498;2023-08-06T03:58:58;2.30;;;1.48;;
45136;SDS011;30894;51.740;19.498;2023-08-06T04:01:24;2.95;;;1.67;;
45136;SDS011;30894;51.740;19.498;2023-08-06T04:03:51;2.53;;;1.40;;
45136;SDS011;30894;51.740;19.498;2023-08-06T04:06:17;1.92;;;1.13;;
45136;SDS011;30894;51.740;19.498;2023-08-06T04:08:43;2.60;;;1.90;;
45136;SDS011;30894;51.740;19.498;2023-08-06T04:11:11;3.90;;;1.77;;
45136;SDS011;30894;51.740;19.498;2023-08-06T04:13:41;2.13;;;1.50;;
45136;SDS011;30894;51.740;19.498;2023-08-06T04:16:09;1.77;;;1.48;;
45136;SDS011;30894;51.740;19.498;2023-08-06T04:18:35;2.67;;;1.33;;
45136;SDS011;30894;51.740;19.498;2023-08-06T04:21:01;2.35;;;1.30;;
45136;SDS011;30894;51.740;19.498;2023-08-06T04:23:28;3.58;;;1.75;;
45136;SDS011;30894;51.740;19.498;2023-08-06T04:25:57;1.83;;;1.40;;
45136;SDS011;30894;51.740;19.498;2023-08-06T04:28:24;2.75;;;1.70;;
45136;SDS011;30894;51.740;19.498;2023-08-06T04:30:49;3.60;;;1.90;;
45136;SDS011;30894;51.740;19.498;2023-08-06T04:33:16;3.00;;;1.88;;
45136;SDS011;30894;51.740;19.498;2023-08-06T04:35:41;3.83;;;1.83;;
45136;SDS011;30894;51.740;19.498;2023-08-06T04:38:08;2.83;;;1.70;;
45136;SDS011;30894;51.740;19.498;2023-08-06T04:40:34;4.43;;;1.88;;
45136;SDS011;30894;51.740;19.498;2023-08-06T04:43:01;3.22;;;1.63;;
45136;SDS011;30894;51.740;19.498;2023-08-06T04:45:28;2.60;;;1.73;;
45136;SDS011;30894;51.740;19.498;2023-08-06T04:47:54;3.17;;;1.83;;
45136;SDS011;30894;51.740;19.498;2023-08-06T04:50:20;4.45;;;1.70;;
45136;SDS011;30894;51.740;19.498;2023-08-06T04:52:46;4.72;;;2.10;;
45136;SDS011;30894;51.740;19.498;2023-08-06T04:55:12;5.00;;;2.33;;
45136;SDS011;30894;51.740;19.498;2023-08-06T04:57:38;7.43;;;1.92;;
45136;SDS011;30894;51.740;19.498;2023-08-06T05:00:04;3.72;;;2.08;;
45136;SDS011;30894;51.740;19.498;2023-08-06T05:02:31;3.33;;;1.98;;
45136;SDS011;30894;51.740;19.498;2023-08-06T05:04:59;3.13;;;1.70;;
45136;SDS011;30894;51.740;19.498;2023-08-06T05:07:26;4.07;;;2.10;;
45136;SDS011;30894;51.740;19.498;2023-08-06T05:09:52;2.78;;;1.65;;
45136;SDS011;30894;51.740;19.498;2023-08-06T05:12:19;4.45;;;2.30;;
45136;SDS011;30894;51.740;19.498;2023-08-06T05:14:47;2.38;;;1.67;;
45136;SDS011;30894;51.740;19.498;2023-08-06T05:17:13;3.58;;;1.92;;
45136;SDS011;30894;51.740;19.498;2023-08-06T05:19:39;2.65;;;1.73;;
45136;SDS011;30894;51.740;19.498;2023-08-06T05:22:05;2.50;;;1.60;;
45136;SDS011;30894;51.740;19.498;2023-08-06T05:24:31;4.80;;;1.90;;
45136;SDS011;30894;51.740;19.498;2023-08-06T05:26:57;4.57;;;2.28;;
45136;SDS011;30894;51.740;19.498;2023-08-06T05:29:23;6.28;;;1.95;;
45136;SDS011;30894;51.740;19.498;2023-08-06T05:31:49;4.35;;;2.00;;
45136;SDS011;30894;51.740;19.498;2023-08-06T05:34:15;6.07;;;1.90;;
45136;SDS011;30894;51.740;19.498;2023-08-06T05:36:42;3.72;;;1.80;;
45136;SDS011;30894;51.740;19.498;2023-08-06T05:39:08;6.60;;;1.63;;
45136;SDS011;30894;51.740;19.498;2023-08-06T05:41:34;3.33;;;1.83;;
45136;SDS011;30894;51.740;19.498;2023-08-06T05:44:00;3.67;;;1.63;;
45136;SDS011;30894;51.740;19.498;2023-08-06T05:46:26;3.90;;;2.25;;
45136;SDS011;30894;51.740;19.498;2023-08-06T05:48:52;4.13;;;1.85;;
45136;SDS011;30894;51.740;19.498;2023-08-06T05:51:18;3.65;;;1.75;;
45136;SDS011;30894;51.740;19.498;2023-08-06T05:53:45;3.15;;;1.65;;
45136;SDS011;30894;51.740;19.498;2023-08-06T05:56:12;2.30;;;1.52;;
45136;SDS011;30894;51.740;19.498;2023-08-06T05:58:38;3.78;;;1.90;;
45136;SDS011;30894;51.740;19.498;2023-08-06T06:01:04;4.18;;;2.00;;
45136;SDS011;30894;51.740;19.498;2023-08-06T06:03:30;6.10;;;1.80;;
45136;SDS011;30894;51.740;19.498;2023-08-06T06:05:56;4.20;;;1.85;;
45136;SDS011;30894;51.740;19.498;2023-08-06T06:08:22;2.25;;;1.45;;
45136;SDS011;30894;51.740;19.498;2023-08-06T06:10:49;4.63;;;2.13;;
45136;SDS011;30894;51.740;19.498;2023-08-06T06:13:15;3.13;;;1.67;;
45136;SDS011;30894;51.740;19.498;2023-08-06T06:15:41;6.45;;;2.58;;
45136;SDS011;30894;51.740;19.498;2023-08-06T06:18:07;3.38;;;2.08;;
45136;SDS011;30894;51.740;19.498;2023-08-06T06:20:33;4.95;;;1.83;;
45136;SDS011;30894;51.740;19.498;2023-08-06T06:22:59;2.65;;;1.80;;
45136;SDS011;30894;51.740;19.498;2023-08-06T06:25:25;4.55;;;2.05;;
45136;SDS011;30894;51.740;19.498;2023-08-06T06:27:51;5.45;;;2.28;;
45136;SDS011;30894;51.740;19.498;2023-08-06T06:30:17;3.28;;;1.90;;
45136;SDS011;30894;51.740;19.498;2023-08-06T06:32:43;3.50;;;2.10;;
45136;SDS011;30894;51.740;19.498;2023-08-06T06:35:10;2.83;;;1.80;;
45136;SDS011;30894;51.740;19.498;2023-08-06T06:37:36;3.13;;;1.30;;
45136;SDS011;30894;51.740;19.498;2023-08-06T06:40:02;4.80;;;1.98;;
45136;SDS011;30894;51.740;19.498;2023-08-06T06:42:29;4.10;;;2.15;;
45136;SDS011;30894;51.740;19.498;2023-08-06T06:44:55;4.70;;;1.90;;
45136;SDS011;30894;51.740;19.498;2023-08-06T06:47:21;2.72;;;1.73;;
45136;SDS011;30894;51.740;19.498;2023-08-06T06:49:47;3.00;;;1.88;;
45136;SDS011;30894;51.740;19.498;2023-08-06T06:52:14;3.65;;;2.00;;
45136;SDS011;30894;51.740;19.498;2023-08-06T06:54:40;3.10;;;1.85;;
45136;SDS011;30894;51.740;19.498;2023-08-06T06:57:06;2.88;;;1.52;;
45136;SDS011;30894;51.740;19.498;2023-08-06T06:59:32;3.50;;;1.83;;
45136;SDS011;30894;51.740;19.498;2023-08-06T07:01:58;4.03;;;2.13;;
45136;SDS011;30894;51.740;19.498;2023-08-06T07:04:24;2.88;;;1.70;;
45136;SDS011;30894;51.740;19.498;2023-08-06T07:06:50;4.80;;;2.60;;
45136;SDS011;30894;51.740;19.498;2023-08-06T07:09:17;4.50;;;2.30;;
45136;SDS011;30894;51.740;19.498;2023-08-06T07:11:43;6.00;;;2.80;;
45136;SDS011;30894;51.740;19.498;2023-08-06T07:14:10;6.60;;;2.58;;
45136;SDS011;30894;51.740;19.498;2023-08-06T07:16:36;7.05;;;3.10;;
45136;SDS011;30894;51.740;19.498;2023-08-06T07:19:02;6.50;;;3.00;;
45136;SDS011;30894;51.740;19.498;2023-08-06T07:21:28;3.85;;;2.15;;
45136;SDS011;30894;51.740;19.498;2023-08-06T07:23:54;7.18;;;3.15;;
45136;SDS011;30894;51.740;19.498;2023-08-06T07:26:20;11.80;;;3.35;;
45136;SDS011;30894;51.740;19.498;2023-08-06T07:28:47;6.80;;;2.85;;
45136;SDS011;30894;51.740;19.498;2023-08-06T07:31:12;4.68;;;2.65;;
45136;SDS011;30894;51.740;19.498;2023-08-06T07:33:39;5.80;;;2.70;;
45136;SDS011;30894;51.740;19.498;2023-08-06T07:36:09;6.15;;;2.95;;
45136;SDS011;30894;51.740;19.498;2023-08-06T07:38:40;3.92;;;2.33;;
45136;SDS011;30894;51.740;19.498;2023-08-06T07:41:06;4.88;;;2.40;;
45136;SDS011;30894;51.740;19.498;2023-08-06T07:43:32;5.45;;;2.90;;
45136;SDS011;30894;51.740;19.498;2023-08-06T07:45:59;4.40;;;2.15;;
45136;SDS011;30894;51.740;19.498;2023-08-06T07:48:26;3.78;;;2.08;;
45136;SDS011;30894;51.740;19.498;2023-08-06T07:50:53;4.82;;;2.33;;
45136;SDS011;30894;51.740;19.498;2023-08-06T07:53:21;3.70;;;2.33;;
45136;SDS011;30894;51.740;19.498;2023-08-06T07:55:49;5.35;;;2.78;;
45136;SDS011;30894;51.740;19.498;2023-08-06T07:58:18;4.97;;;2.53;;
45136;SDS011;30894;51.740;19.498;2023-08-06T08:00:45;7.00;;;2.72;;
45136;SDS011;30894;51.740;19.498;2023-08-06T08:03:12;7.90;;;2.60;;
45136;SDS011;30894;51.740;19.498;2023-08-06T08:05:40;4.47;;;2.25;;
45136;SDS011;30894;51.740;19.498;2023-08-06T08:08:07;5.60;;;2.75;;
45136;SDS011;30894;51.740;19.498;2023-08-06T08:10:34;3.88;;;2.42;;
45136;SDS011;30894;51.740;19.498;2023-08-06T08:13:01;4.65;;;2.25;;
45136;SDS011;30894;51.740;19.498;2023-08-06T08:15:28;5.93;;;2.88;;
45136;SDS011;30894;51.740;19.498;2023-08-06T08:17:54;6.40;;;2.58;;
45136;SDS011;30894;51.740;19.498;2023-08-06T08:20:24;3.35;;;1.73;;
45136;SDS011;30894;51.740;19.498;2023-08-06T08:22:53;6.45;;;2.83;;
45136;SDS011;30894;51.740;19.498;2023-08-06T08:25:19;5.53;;;1.95;;
45136;SDS011;30894;51.740;19.498;2023-08-06T08:27:45;3.08;;;1.98;;
45136;SDS011;30894;51.740;19.498;2023-08-06T08:30:12;5.20;;;2.33;;
45136;SDS011;30894;51.740;19.498;2023-08-06T08:32:38;6.55;;;3.58;;
45136;SDS011;30894;51.740;19.498;2023-08-06T08:35:04;3.90;;;2.28;;
45136;SDS011;30894;51.740;19.498;2023-08-06T08:37:30;5.53;;;2.83;;
45136;SDS011;30894;51.740;19.498;2023-08-06T08:39:56;4.97;;;2.63;;
45136;SDS011;30894;51.740;19.498;2023-08-06T08:42:22;4.72;;;2.28;;
45136;SDS011;30894;51.740;19.498;2023-08-06T08:44:49;6.70;;;3.28;;
45136;SDS011;30894;51.740;19.498;2023-08-06T08:47:16;5.43;;;2.40;;
45136;SDS011;30894;51.740;19.498;2023-08-06T08:49:42;4.93;;;2.53;;
45136;SDS011;30894;51.740;19.498;2023-08-06T08:52:10;4.32;;;2.10;;
45136;SDS011;30894;51.740;19.498;2023-08-06T08:54:38;6.63;;;2.50;;
45136;SDS011;30894;51.740;19.498;2023-08-06T08:57:05;4.25;;;2.40;;
45136;SDS011;30894;51.740;19.498;2023-08-06T08:59:32;5.38;;;2.47;;
45136;SDS011;30894;51.740;19.498;2023-08-06T09:02:00;5.18;;;2.60;;
45136;SDS011;30894;51.740;19.498;2023-08-06T09:04:28;5.38;;;2.30;;
45136;SDS011;30894;51.740;19.498;2023-08-06T09:07:01;4.55;;;2.42;;
45136;SDS011;30894;51.740;19.498;2023-08-06T09:09:34;8.70;;;2.30;;
45136;SDS011;30894;51.740;19.498;2023-08-06T09:12:10;3.45;;;1.80;;
45136;SDS011;30894;51.740;19.498;2023-08-06T09:14:40;4.22;;;2.25;;
45136;SDS011;30894;51.740;19.498;2023-08-06T09:17:07;4.25;;;2.25;;
45136;SDS011;30894;51.740;19.498;2023-08-06T09:19:35;3.15;;;2.10;;
45136;SDS011;30894;51.740;19.498;2023-08-06T09:22:02;3.95;;;2.00;;
45136;SDS011;30894;51.740;19.498;2023-08-06T09:24:28;4.22;;;2.35;;
45136;SDS011;30894;51.740;19.498;2023-08-06T09:26:55;5.13;;;2.50;;
45136;SDS011;30894;51.740;19.498;2023-08-06T09:29:21;5.03;;;2.58;;
45136;SDS011;30894;51.740;19.498;2023-08-06T09:31:48;5.60;;;2.40;;
45136;SDS011;30894;51.740;19.498;2023-08-06T09:34:19;5.65;;;2.67;;
45136;SDS011;30894;51.740;19.498;2023-08-06T09:36:48;5.57;;;2.47;;
45136;SDS011;30894;51.740;19.498;2023-08-06T09:39:24;4.05;;;2.55;;
45136;SDS011;30894;51.740;19.498;2023-08-06T09:42:00;5.88;;;2.38;;
45136;SDS011;30894;51.740;19.498;2023-08-06T09:44:27;10.57;;;3.63;;
45136;SDS011;30894;51.740;19.498;2023-08-06T09:46:57;6.63;;;2.83;;
45136;SDS011;30894;51.740;19.498;2023-08-06T09:49:26;6.43;;;2.90;;
45136;SDS011;30894;51.740;19.498;2023-08-06T09:51:55;6.13;;;3.28;;
45136;SDS011;30894;51.740;19.498;2023-08-06T09:54:23;7.30;;;3.80;;
45136;SDS011;30894;51.740;19.498;2023-08-06T09:56:52;7.38;;;3.45;;
45136;SDS011;30894;51.740;19.498;2023-08-06T09:59:19;10.18;;;3.72;;
45136;SDS011;30894;51.740;19.498;2023-08-06T10:01:45;10.15;;;4.18;;
45136;SDS011;30894;51.740;19.498;2023-08-06T10:04:13;10.65;;;3.85;;
45136;SDS011;30894;51.740;19.498;2023-08-06T10:06:42;10.52;;;4.10;;
45136;SDS011;30894;51.740;19.498;2023-08-06T10:09:08;9.73;;;4.43;;
45136;SDS011;30894;51.740;19.498;2023-08-06T10:11:38;9.75;;;4.72;;
45136;SDS011;30894;51.740;19.498;2023-08-06T10:14:09;12.98;;;4.80;;
45136;SDS011;30894;51.740;19.498;2023-08-06T10:16:42;10.93;;;5.20;;
45136;SDS011;30894;51.740;19.498;2023-08-06T10:19:11;11.88;;;4.65;;
45136;SDS011;30894;51.740;19.498;2023-08-06T10:21:41;10.40;;;4.72;;
45136;SDS011;30894;51.740;19.498;2023-08-06T10:24:50;12.48;;;5.47;;
45136;SDS011;30894;51.740;19.498;2023-08-06T10:27:29;11.77;;;5.03;;
45136;SDS011;30894;51.740;19.498;2023-08-06T10:32:59;14.93;;;6.05;;
45136;SDS011;30894;51.740;19.498;2023-08-06T10:38:17;14.38;;;6.22;;
45136;SDS011;30894;51.740;19.498;2023-08-06T10:43:24;13.05;;;6.43;;
45136;SDS011;30894;51.740;19.498;2023-08-06T10:45:53;12.98;;;6.07;;
45136;SDS011;30894;51.740;19.498;2023-08-06T10:48:39;13.45;;;5.97;;
45136;SDS011;30894;51.740;19.498;2023-08-06T10:51:07;16.58;;;7.38;;
45136;SDS011;30894;51.740;19.498;2023-08-06T10:53:42;15.43;;;6.50;;
45136;SDS011;30894;51.740;19.498;2023-08-06T10:56:17;15.73;;;7.07;;
45136;SDS011;30894;51.740;19.498;2023-08-06T10:58:44;14.15;;;6.43;;
45136;SDS011;30894;51.740;19.498;2023-08-06T11:01:12;15.00;;;7.32;;
45136;SDS011;30894;51.740;19.498;2023-08-06T11:03:38;17.25;;;6.72;;
45136;SDS011;30894;51.740;19.498;2023-08-06T11:06:07;13.98;;;6.80;;
45136;SDS011;30894;51.740;19.498;2023-08-06T11:08:35;13.98;;;6.85;;
45136;SDS011;30894;51.740;19.498;2023-08-06T11:11:14;14.15;;;6.97;;
45136;SDS011;30894;51.740;19.498;2023-08-06T11:13:45;12.52;;;6.57;;
45136;SDS011;30894;51.740;19.498;2023-08-06T11:16:13;15.80;;;6.95;;
45136;SDS011;30894;51.740;19.498;2023-08-06T11:18:42;16.42;;;7.75;;
45136;SDS011;30894;51.740;19.498;2023-08-06T11:21:08;16.58;;;7.50;;
45136;SDS011;30894;51.740;19.498;2023-08-06T11:23:35;4.95;;;3.00;;
45136;SDS011;30894;51.740;19.498;2023-08-06T11:26:01;1.55;;;1.25;;
45136;SDS011;30894;51.740;19.498;2023-08-06T11:28:28;1.15;;;0.82;;
45136;SDS011;30894;51.740;19.498;2023-08-06T11:30:54;0.45;;;0.45;;
45136;SDS011;30894;51.740;19.498;2023-08-06T11:33:22;0.63;;;0.50;;
45136;SDS011;30894;51.740;19.498;2023-08-06T11:35:54;0.90;;;0.63;;
45136;SDS011;30894;51.740;19.498;2023-08-06T11:38:25;5.43;;;0.40;;
45136;SDS011;30894;51.740;19.498;2023-08-06T11:41:03;1.00;;;0.35;;
45136;SDS011;30894;51.740;19.498;2023-08-06T11:43:30;3.55;;;0.35;;
45136;SDS011;30894;51.740;19.498;2023-08-06T11:45:56;0.10;;;0.10;;
45136;SDS011;30894;51.740;19.498;2023-08-06T11:48:22;0.88;;;0.30;;
45136;SDS011;30894;51.740;19.498;2023-08-06T11:50:48;0.15;;;0.10;;
45136;SDS011;30894;51.740;19.498;2023-08-06T11:53:15;0.20;;;0.20;;
45136;SDS011;30894;51.740;19.498;2023-08-06T11:55:41;0.13;;;0.13;;
45136;SDS011;30894;51.740;19.498;2023-08-06T11:58:09;0.20;;;0.20;;
45136;SDS011;30894;51.740;19.498;2023-08-06T12:00:39;1.65;;;0.65;;
45136;SDS011;30894;51.740;19.498;2023-08-06T12:03:08;0.20;;;0.20;;
45136;SDS011;30894;51.740;19.498;2023-08-06T12:05:35;0.13;;;0.13;;
45136;SDS011;30894;51.740;19.498;2023-08-06T12:08:04;0.20;;;0.20;;
45136;SDS011;30894;51.740;19.498;2023-08-06T12:10:31;0.30;;;0.30;;
45136;SDS011;30894;51.740;19.498;2023-08-06T12:12:58;0.28;;;0.28;;
45136;SDS011;30894;51.740;19.498;2023-08-06T12:15:24;0.20;;;0.20;;
45136;SDS011;30894;51.740;19.498;2023-08-06T12:17:50;0.20;;;0.20;;
45136;SDS011;30894;51.740;19.498;2023-08-06T12:20:16;0.20;;;0.20;;
45136;SDS011;30894;51.740;19.498;2023-08-06T12:22:43;0.38;;;0.30;;
45136;SDS011;30894;51.740;19.498;2023-08-06T12:25:11;0.20;;;0.20;;
45136;SDS011;30894;51.740;19.498;2023-08-06T12:27:38;0.20;;;0.20;;
45136;SDS011;30894;51.740;19.498;2023-08-06T12:30:10;0.10;;;0.10;;
45136;SDS011;30894;51.740;19.498;2023-08-06T12:32:37;0.30;;;0.30;;
45136;SDS011;30894;51.740;19.498;2023-08-06T12:35:04;2.08;;;0.40;;
45136;SDS011;30894;51.740;19.498;2023-08-06T12:37:33;0.40;;;0.40;;
45136;SDS011;30894;51.740;19.498;2023-08-06T12:39:59;0.20;;;0.20;;
45136;SDS011;30894;51.740;19.498;2023-08-06T12:42:25;0.40;;;0.35;;
45136;SDS011;30894;51.740;19.498;2023-08-06T12:44:51;0.22;;;0.22;;
45136;SDS011;30894;51.740;19.498;2023-08-06T12:47:18;0.28;;;0.28;;
45136;SDS011;30894;51.740;19.498;2023-08-06T12:49:45;2.00;;;0.30;;
45136;SDS011;30894;51.740;19.498;2023-08-06T12:52:11;0.40;;;0.40;;
45136;SDS011;30894;51.740;19.498;2023-08-06T12:54:40;0.30;;;0.25;;
45136;SDS011;30894;51.740;19.498;2023-08-06T12:57:06;0.40;;;0.40;;
45136;SDS011;30894;51.740;19.498;2023-08-06T12:59:33;0.30;;;0.30;;
45136;SDS011;30894;51.740;19.498;2023-08-06T13:02:01;0.77;;;0.43;;
45136;SDS011;30894;51.740;19.498;2023-08-06T13:04:27;0.40;;;0.40;;
45136;SDS011;30894;51.740;19.498;2023-08-06T13:06:54;0.88;;;0.60;;
45136;SDS011;30894;51.740;19.498;2023-08-06T13:09:20;0.20;;;0.20;;
45136;SDS011;30894;51.740;19.498;2023-08-06T13:11:46;0.43;;;0.43;;
45136;SDS011;30894;51.740;19.498;2023-08-06T13:14:15;0.52;;;0.52;;
45136;SDS011;30894;51.740;19.498;2023-08-06T13:16:42;0.55;;;0.50;;
45136;SDS011;30894;51.740;19.498;2023-08-06T13:19:08;0.60;;;0.60;;
45136;SDS011;30894;51.740;19.498;2023-08-06T13:21:35;0.50;;;0.47;;
45136;SDS011;30894;51.740;19.498;2023-08-06T13:24:24;0.30;;;0.30;;
45136;SDS011;30894;51.740;19.498;2023-08-06T13:26:50;0.30;;;0.30;;
45136;SDS011;30894;51.740;19.498;2023-08-06T13:29:16;0.25;;;0.25;;
45136;SDS011;30894;51.740;19.498;2023-08-06T13:31:42;0.60;;;0.40;;
45136;SDS011;30894;51.740;19.498;2023-08-06T13:34:09;0.30;;;0.30;;
45136;SDS011;30894;51.740;19.498;2023-08-06T13:36:36;0.30;;;0.30;;
45136;SDS011;30894;51.740;19.498;2023-08-06T13:39:02;0.10;;;0.10;;
45136;SDS011;30894;51.740;19.498;2023-08-06T13:41:30;0.43;;;0.20;;
45136;SDS011;30894;51.740;19.498;2023-08-06T13:43:56;0.30;;;0.30;;
45136;SDS011;30894;51.740;19.498;2023-08-06T13:46:22;0.30;;;0.30;;
45136;SDS011;30894;51.740;19.498;2023-08-06T13:48:48;0.93;;;0.30;;
45136;SDS011;30894;51.740;19.498;2023-08-06T13:51:16;0.28;;;0.20;;
45136;SDS011;30894;51.740;19.498;2023-08-06T13:53:42;0.45;;;0.28;;
45136;SDS011;30894;51.740;19.498;2023-08-06T13:56:09;0.88;;;0.35;;
45136;SDS011;30894;51.740;19.498;2023-08-06T13:58:42;0.47;;;0.40;;
45136;SDS011;30894;51.740;19.498;2023-08-06T14:01:09;0.17;;;0.17;;
45136;SDS011;30894;51.740;19.498;2023-08-06T14:03:36;0.20;;;0.20;;
45136;SDS011;30894;51.740;19.498;2023-08-06T14:06:02;0.10;;;0.10;;
45136;SDS011;30894;51.740;19.498;2023-08-06T14:08:28;0.45;;;0.28;;
45136;SDS011;30894;51.740;19.498;2023-08-06T14:10:54;0.22;;;0.22;;
45136;SDS011;30894;51.740;19.498;2023-08-06T14:13:24;0.20;;;0.20;;
45136;SDS011;30894;51.740;19.498;2023-08-06T14:15:50;0.20;;;0.20;;
45136;SDS011;30894;51.740;19.498;2023-08-06T14:18:16;0.30;;;0.30;;
45136;SDS011;30894;51.740;19.498;2023-08-06T14:20:42;0.30;;;0.30;;
45136;SDS011;30894;51.740;19.498;2023-08-06T14:23:09;0.20;;;0.20;;
45136;SDS011;30894;51.740;19.498;2023-08-06T14:25:35;0.20;;;0.20;;
45136;SDS011;30894;51.740;19.498;2023-08-06T14:28:03;0.22;;;0.22;;
45136;SDS011;30894;51.740;19.498;2023-08-06T14:30:31;0.20;;;0.20;;
45136;SDS011;30894;51.740;19.498;2023-08-06T14:32:59;0.80;;;0.20;;
45136;SDS011;30894;51.740;19.498;2023-08-06T14:35:29;0.30;;;0.30;;
45136;SDS011;30894;51.740;19.498;2023-08-06T14:37:55;0.17;;;0.17;;
45136;SDS011;30894;51.740;19.498;2023-08-06T14:40:21;0.32;;;0.32;;
45136;SDS011;30894;51.740;19.498;2023-08-06T14:42:47;0.75;;;0.75;;
45136;SDS011;30894;51.740;19.498;2023-08-06T14:45:16;0.47;;;0.43;;
45136;SDS011;30894;51.740;19.498;2023-08-06T14:47:42;0.20;;;0.20;;